createdAt,value
2018-07-07T00:00:24.714Z,7.27
2018-07-07T00:02:54.011Z,6.30
2018-07-07T00:05:22.676Z,7.00
2018-07-07T00:07:50.874Z,7.20
2018-07-07T00:10:19.302Z,7.80
2018-07-07T00:12:47.397Z,8.80
2018-07-07T00:15:18.871Z,7.63
2018-07-07T00:17:47.453Z,7.70
2018-07-07T00:20:16.083Z,8.37
2018-07-07T00:22:44.303Z,7.37
2018-07-07T00:25:14.434Z,8.07
2018-07-07T00:27:42.934Z,7.47
2018-07-07T00:30:11.074Z,9.03
2018-07-07T00:32:39.190Z,7.63
2018-07-07T00:35:07.318Z,7.70
2018-07-07T00:37:35.475Z,7.90
2018-07-07T00:40:04.063Z,7.37
2018-07-07T00:42:32.113Z,7.70
2018-07-07T00:45:00.254Z,9.03
2018-07-07T00:47:28.336Z,9.23
2018-07-07T00:49:56.909Z,8.60
2018-07-07T00:52:26.008Z,8.77
2018-07-07T00:54:54.959Z,9.20
2018-07-07T00:57:23.766Z,7.77
2018-07-07T00:59:52.640Z,8.47
2018-07-07T01:02:22.073Z,8.03
2018-07-07T01:04:51.684Z,9.07
2018-07-07T01:07:19.861Z,8.80
2018-07-07T01:09:48.119Z,8.80
2018-07-07T01:12:16.327Z,9.27
2018-07-07T01:14:44.424Z,8.23
2018-07-07T01:17:12.534Z,7.70
2018-07-07T01:19:40.985Z,9.17
2018-07-07T01:22:10.458Z,8.60
2018-07-07T01:24:38.730Z,7.97
2018-07-07T01:27:06.905Z,8.10
2018-07-07T01:29:34.959Z,7.80
2018-07-07T01:32:03.054Z,7.53
2018-07-07T01:34:31.144Z,8.20
2018-07-07T01:36:59.280Z,8.47
2018-07-07T01:39:28.061Z,8.47
2018-07-07T01:41:57.266Z,9.23
2018-07-07T01:44:26.230Z,9.63
2018-07-07T01:46:55.019Z,10.20
2018-07-07T01:49:23.227Z,10.60
2018-07-07T01:51:51.428Z,8.93
2018-07-07T01:54:19.512Z,9.70
2018-07-07T01:56:47.607Z,8.97
2018-07-07T01:59:15.675Z,10.63
2018-07-07T02:01:43.768Z,10.73
2018-07-07T02:04:11.845Z,10.83
2018-07-07T02:06:40.478Z,11.30
2018-07-07T02:09:09.545Z,10.13
2018-07-07T02:11:38.604Z,10.10
2018-07-07T02:14:07.391Z,9.47
2018-07-07T02:16:35.708Z,9.77
2018-07-07T02:19:03.973Z,8.90
2018-07-07T02:21:32.169Z,9.53
2018-07-07T02:24:00.225Z,9.30
2018-07-07T02:26:28.460Z,9.45
2018-07-07T02:28:56.570Z,10.27
2018-07-07T02:31:24.905Z,11.57
2018-07-07T02:33:52.985Z,11.10
2018-07-07T02:36:21.186Z,11.30
2018-07-07T02:38:49.257Z,10.97
2018-07-07T02:41:17.386Z,11.13
2018-07-07T02:43:45.466Z,10.73
2018-07-07T02:46:13.639Z,12.17
2018-07-07T02:48:42.553Z,10.97
2018-07-07T02:51:11.303Z,11.60
2018-07-07T02:53:40.364Z,10.90
2018-07-07T02:56:09.486Z,10.30
2018-07-07T02:58:38.113Z,10.80
2018-07-07T03:01:06.614Z,12.70
2018-07-07T03:03:34.803Z,12.30
2018-07-07T03:06:02.883Z,12.07
2018-07-07T03:08:31.313Z,11.27
2018-07-07T03:10:59.425Z,11.00
2018-07-07T03:13:27.476Z,10.20
2018-07-07T03:15:55.600Z,11.13
2018-07-07T03:18:23.742Z,10.93
2018-07-07T03:20:51.839Z,9.90
2018-07-07T03:23:19.926Z,11.40
2018-07-07T03:25:48.021Z,10.43
2018-07-07T03:28:16.154Z,10.23
2018-07-07T03:30:44.236Z,10.13
2018-07-07T03:33:12.552Z,10.97
2018-07-07T03:35:41.701Z,10.73
2018-07-07T03:38:10.953Z,9.93
2018-07-07T03:40:39.637Z,10.77
2018-07-07T03:43:07.816Z,10.73
2018-07-07T03:45:36.227Z,10.00
2018-07-07T03:48:04.337Z,11.40
2018-07-07T03:50:32.494Z,13.27
2018-07-07T03:53:00.633Z,11.43
2018-07-07T03:55:28.750Z,10.80
2018-07-07T03:57:56.881Z,9.90
2018-07-07T04:00:24.942Z,11.20
2018-07-07T04:02:53.055Z,11.50
2018-07-07T04:05:21.137Z,11.40
2018-07-07T04:07:49.253Z,11.40
2018-07-07T04:10:17.319Z,9.90
2018-07-07T04:12:45.410Z,11.43
2018-07-07T04:15:13.617Z,10.10
2018-07-07T04:17:42.530Z,22.27
2018-07-07T04:20:11.505Z,28.90
2018-07-07T04:22:42.919Z,40.47
2018-07-07T04:25:12.034Z,15.03
2018-07-07T04:27:40.989Z,11.50
2018-07-07T04:30:09.576Z,10.87
2018-07-07T04:32:37.808Z,11.43
2018-07-07T04:35:05.936Z,11.47
2018-07-07T04:37:34.053Z,10.07
2018-07-07T04:40:02.110Z,12.17
2018-07-07T04:42:30.250Z,10.77
2018-07-07T04:44:58.355Z,10.87
2018-07-07T04:47:26.488Z,9.67
2018-07-07T04:49:54.556Z,10.33
2018-07-07T04:52:22.668Z,10.93
2018-07-07T04:54:50.745Z,10.33
2018-07-07T04:57:18.888Z,10.03
2018-07-07T04:59:46.945Z,9.60
2018-07-07T05:02:15.061Z,10.70
2018-07-07T05:04:43.841Z,9.57
2018-07-07T05:07:12.942Z,10.40
2018-07-07T05:09:41.784Z,8.80
2018-07-07T05:12:10.179Z,12.50
2018-07-07T05:14:38.513Z,21.67
2018-07-07T05:17:13.470Z,40.57
2018-07-07T05:19:42.286Z,13.97
2018-07-07T05:22:10.965Z,10.53
2018-07-07T05:24:39.280Z,11.30
2018-07-07T05:27:07.457Z,11.47
2018-07-07T05:29:35.542Z,11.60
2018-07-07T05:32:03.665Z,11.00
2018-07-07T05:34:31.731Z,11.77
2018-07-07T05:36:59.779Z,11.87
2018-07-07T05:39:27.872Z,10.90
2018-07-07T05:41:55.921Z,10.80
2018-07-07T05:44:24.018Z,12.90
2018-07-07T05:46:52.089Z,12.50
2018-07-07T05:49:20.185Z,11.60
2018-07-07T05:51:48.255Z,11.23
2018-07-07T05:54:16.336Z,12.00
2018-07-07T05:56:44.930Z,10.90
2018-07-07T05:59:13.987Z,11.50
2018-07-07T06:01:42.779Z,12.03
2018-07-07T06:04:11.054Z,11.30
2018-07-07T06:06:39.278Z,11.13
2018-07-07T06:09:07.367Z,10.90
2018-07-07T06:11:35.745Z,11.10
2018-07-07T06:14:03.977Z,12.63
2018-07-07T06:16:32.081Z,12.37
2018-07-07T06:19:00.354Z,12.10
2018-07-07T06:21:28.433Z,10.90
2018-07-07T06:23:56.560Z,12.90
2018-07-07T06:26:24.630Z,12.53
2018-07-07T06:28:52.736Z,10.80
2018-07-07T06:31:20.837Z,13.23
2018-07-07T06:33:49.009Z,10.80
2018-07-07T06:36:17.186Z,11.23
2018-07-07T06:38:45.853Z,11.43
2018-07-07T06:41:14.916Z,12.10
2018-07-07T06:43:43.894Z,12.40
2018-07-07T06:46:12.885Z,12.80
2018-07-07T06:48:41.113Z,11.00
2018-07-07T06:51:09.278Z,11.60
2018-07-07T06:53:37.446Z,12.33
2018-07-07T06:56:05.659Z,11.63
2018-07-07T06:58:33.780Z,11.37
2018-07-07T07:01:01.916Z,12.40
2018-07-07T07:03:30.064Z,13.83
2018-07-07T07:05:58.129Z,12.47
2018-07-07T07:08:26.237Z,15.20
2018-07-07T07:10:54.365Z,13.73
2018-07-07T07:13:22.448Z,10.40
2018-07-07T07:15:50.529Z,12.43
2018-07-07T07:18:18.765Z,10.10
2018-07-07T07:20:47.233Z,12.00
2018-07-07T07:23:16.204Z,12.23
2018-07-07T07:25:45.249Z,37.47
2018-07-07T07:28:13.790Z,21.87
2018-07-07T07:30:41.992Z,13.97
2018-07-07T07:33:10.230Z,13.27
2018-07-07T07:35:38.322Z,14.40
2018-07-07T07:38:06.429Z,16.60
2018-07-07T07:40:34.513Z,13.57
2018-07-07T07:43:02.583Z,12.80
2018-07-07T07:45:30.676Z,14.40
2018-07-07T07:47:58.776Z,16.87
2018-07-07T07:50:26.889Z,14.80
2018-07-07T07:52:54.979Z,13.27
2018-07-07T07:55:23.119Z,13.20
2018-07-07T07:57:51.177Z,11.80
2018-07-07T08:00:19.372Z,11.80
2018-07-07T08:02:47.724Z,12.30
2018-07-07T08:05:16.641Z,13.17
2018-07-07T08:07:45.703Z,13.40
2018-07-07T08:10:14.286Z,11.70
2018-07-07T08:12:42.604Z,10.73
2018-07-07T08:15:13.205Z,12.17
2018-07-07T08:17:41.420Z,11.87
2018-07-07T08:20:09.516Z,11.57
2018-07-07T08:22:37.647Z,15.80
2018-07-07T08:25:05.752Z,15.70
2018-07-07T08:27:33.894Z,12.00
2018-07-07T08:30:01.989Z,12.40
2018-07-07T08:32:30.037Z,12.83
2018-07-07T08:34:58.134Z,12.90
2018-07-07T08:37:26.185Z,13.57
2018-07-07T08:39:54.254Z,13.00
2018-07-07T08:42:22.349Z,10.80
2018-07-07T08:44:50.424Z,15.53
2018-07-07T08:47:18.804Z,13.33
2018-07-07T08:49:47.729Z,12.57
2018-07-07T08:52:16.834Z,12.63
2018-07-07T08:54:45.523Z,11.43
2018-07-07T08:57:13.778Z,21.17
2018-07-07T08:59:42.117Z,13.40
2018-07-07T09:02:10.262Z,11.80
2018-07-07T09:04:38.261Z,10.40
2018-07-07T09:07:06.804Z,14.90
2018-07-07T09:09:34.997Z,12.90
2018-07-07T09:12:03.262Z,9.93
2018-07-07T09:14:31.491Z,12.10
2018-07-07T09:16:59.572Z,26.23
2018-07-07T09:19:27.652Z,21.67
2018-07-07T09:21:55.761Z,14.20
2018-07-07T09:24:23.869Z,10.23
2018-07-07T09:26:51.977Z,10.37
2018-07-07T09:29:20.016Z,10.93
2018-07-07T09:31:48.094Z,11.80
2018-07-07T09:34:16.146Z,11.40
2018-07-07T09:36:44.295Z,13.50
2018-07-07T09:39:12.386Z,11.23
2018-07-07T09:41:40.791Z,10.43
2018-07-07T09:44:11.555Z,10.33
2018-07-07T09:46:40.319Z,11.97
2018-07-07T09:49:09.562Z,10.93
2018-07-07T09:51:38.351Z,9.30
2018-07-07T09:54:06.526Z,11.90
2018-07-07T09:56:34.829Z,11.80
2018-07-07T09:59:02.883Z,10.43
2018-07-07T10:01:30.982Z,11.63
2018-07-07T10:03:59.035Z,10.57
2018-07-07T10:06:27.129Z,9.80
2018-07-07T10:08:55.180Z,9.97
2018-07-07T10:11:23.262Z,11.50
2018-07-07T10:13:51.309Z,11.40
2018-07-07T10:16:19.363Z,10.87
2018-07-07T10:18:47.450Z,11.03
2018-07-07T10:21:15.537Z,11.80
2018-07-07T10:23:43.602Z,14.10
2018-07-07T10:26:11.894Z,13.97
2018-07-07T10:28:40.919Z,11.27
2018-07-07T10:31:09.843Z,14.23
2018-07-07T10:33:38.644Z,14.13
2018-07-07T10:36:06.917Z,12.30
2018-07-07T10:38:35.144Z,11.37
2018-07-07T10:41:03.231Z,12.80
2018-07-07T10:43:31.309Z,12.67
2018-07-07T10:45:59.465Z,12.67
2018-07-07T10:48:27.541Z,12.90
2018-07-07T10:50:55.585Z,11.63
2018-07-07T10:53:23.657Z,11.87
2018-07-07T10:55:51.745Z,13.30
2018-07-07T10:58:19.834Z,12.07
2018-07-07T11:00:47.874Z,10.50
2018-07-07T11:03:15.972Z,10.83
2018-07-07T11:05:44.030Z,10.60
2018-07-07T11:08:12.481Z,10.30
2018-07-07T11:10:41.548Z,10.20
2018-07-07T11:13:10.568Z,9.43
2018-07-07T11:15:39.461Z,9.43
2018-07-07T11:18:07.732Z,9.27
2018-07-07T11:20:35.939Z,10.60
2018-07-07T11:23:04.034Z,9.73
2018-07-07T11:25:32.078Z,9.50
2018-07-07T11:28:00.140Z,10.60
2018-07-07T11:30:28.240Z,10.07
2018-07-07T11:32:56.311Z,9.97
2018-07-07T11:35:24.401Z,10.50
2018-07-07T11:37:52.481Z,8.27
2018-07-07T11:40:20.708Z,8.87
2018-07-07T11:42:48.833Z,9.60
2018-07-07T11:45:16.986Z,10.30
2018-07-07T11:47:45.572Z,10.67
2018-07-07T11:50:13.814Z,12.97
2018-07-07T11:52:42.510Z,11.53
2018-07-07T11:55:11.610Z,11.87
2018-07-07T11:57:40.400Z,11.33
2018-07-07T12:00:08.640Z,11.53
2018-07-07T12:02:36.852Z,11.30
2018-07-07T12:05:04.939Z,10.20
2018-07-07T12:07:33.040Z,11.43
2018-07-07T12:10:01.116Z,11.43
2018-07-07T12:12:29.196Z,11.03
2018-07-07T12:14:57.295Z,11.93
2018-07-07T12:17:25.424Z,12.70
2018-07-07T12:19:53.595Z,10.43
2018-07-07T12:22:21.693Z,12.30
2018-07-07T12:24:49.909Z,10.93
2018-07-07T12:27:18.008Z,10.83
2018-07-07T12:29:46.107Z,10.20
2018-07-07T12:32:14.544Z,12.07
2018-07-07T12:34:43.318Z,11.90
2018-07-07T12:37:12.417Z,11.90
2018-07-07T12:39:42.088Z,10.70
2018-07-07T12:42:10.877Z,11.10
2018-07-07T12:44:39.071Z,11.37
2018-07-07T12:47:07.333Z,9.43
2018-07-07T12:49:35.423Z,10.10
2018-07-07T12:52:03.657Z,10.43
2018-07-07T12:54:31.657Z,11.03
2018-07-07T12:56:59.770Z,12.20
2018-07-07T12:59:27.833Z,10.93
2018-07-07T13:01:55.974Z,10.87
2018-07-07T13:04:24.039Z,10.13
2018-07-07T13:06:52.149Z,7.70
2018-07-07T13:09:20.289Z,9.00
2018-07-07T13:11:48.405Z,11.30
2018-07-07T13:14:16.497Z,9.10
2018-07-07T13:16:44.758Z,11.60
2018-07-07T13:19:13.691Z,9.80
2018-07-07T13:21:42.685Z,11.00
2018-07-07T13:24:11.377Z,10.00
2018-07-07T13:26:39.674Z,9.63
2018-07-07T13:29:07.990Z,10.47
2018-07-07T13:31:36.039Z,8.20
2018-07-07T13:34:04.153Z,9.43
2018-07-07T13:36:32.216Z,9.43
2018-07-07T13:39:00.306Z,10.87
2018-07-07T13:41:28.362Z,11.87
2018-07-07T13:43:56.499Z,10.63
2018-07-07T13:46:24.573Z,10.20
2018-07-07T13:48:52.748Z,9.50
2018-07-07T13:51:20.821Z,10.20
2018-07-07T13:53:48.919Z,10.30
2018-07-07T13:56:17.017Z,9.68
2018-07-07T13:58:45.381Z,9.50
2018-07-07T14:01:14.272Z,9.00
2018-07-07T14:03:43.810Z,10.90
2018-07-07T14:06:12.591Z,8.50
2018-07-07T14:08:40.718Z,7.43
2018-07-07T14:11:08.885Z,8.30
2018-07-07T14:13:36.982Z,8.70
2018-07-07T14:16:05.178Z,9.60
2018-07-07T14:18:33.236Z,9.03
2018-07-07T14:21:01.315Z,8.77
2018-07-07T14:23:29.376Z,8.13
2018-07-07T14:25:57.458Z,7.67
2018-07-07T14:28:25.545Z,7.80
2018-07-07T14:30:53.692Z,8.20
2018-07-07T14:33:21.791Z,8.30
2018-07-07T14:35:49.879Z,8.30
2018-07-07T14:38:18.614Z,8.60
2018-07-07T14:40:52.137Z,8.00
2018-07-07T14:43:20.177Z,6.40
2018-07-07T14:45:53.800Z,5.90
2018-07-07T14:48:21.885Z,6.00
2018-07-07T14:50:49.973Z,6.73
2018-07-07T14:53:18.081Z,7.37
2018-07-07T14:55:46.552Z,7.57
2018-07-07T14:58:15.700Z,7.30
2018-07-07T15:00:44.626Z,6.80
2018-07-07T15:03:13.400Z,6.80
2018-07-07T15:05:41.675Z,7.03
2018-07-07T15:08:09.871Z,6.93
2018-07-07T15:10:37.974Z,7.20
2018-07-07T15:13:06.020Z,5.97
2018-07-07T15:15:34.111Z,6.37
2018-07-07T15:18:02.227Z,5.93
2018-07-07T15:20:30.289Z,6.80
2018-07-07T15:22:58.415Z,6.80
2018-07-07T15:25:26.475Z,5.90
2018-07-07T15:27:54.554Z,6.50
2018-07-07T15:30:22.595Z,5.70
2018-07-07T15:32:50.655Z,6.33
2018-07-07T15:35:18.690Z,6.80
2018-07-07T15:37:47.173Z,6.00
2018-07-07T15:40:16.156Z,5.43
2018-07-07T15:42:44.958Z,5.70
2018-07-07T15:45:13.086Z,5.00
2018-07-07T15:47:41.312Z,5.50
2018-07-07T15:50:09.376Z,5.47
2018-07-07T15:52:37.469Z,5.90
2018-07-07T15:55:05.590Z,5.90
2018-07-07T15:57:33.774Z,5.23
2018-07-07T16:00:01.843Z,5.20
2018-07-07T16:02:29.936Z,4.60
2018-07-07T16:04:58.011Z,5.50
2018-07-07T16:07:26.123Z,5.00
2018-07-07T16:09:54.217Z,4.10
2018-07-07T16:12:22.284Z,3.92
2018-07-07T16:14:50.366Z,5.47
2018-07-07T16:17:18.865Z,4.17
2018-07-07T16:19:47.912Z,5.17
2018-07-07T16:22:16.928Z,4.93
2018-07-07T16:24:45.615Z,5.00
2018-07-07T16:27:15.527Z,5.50
2018-07-07T16:29:43.686Z,5.60
2018-07-07T16:32:11.812Z,5.37
2018-07-07T16:34:39.983Z,4.90
2018-07-07T16:37:08.080Z,4.90
2018-07-07T16:39:36.202Z,4.43
2018-07-07T16:42:04.276Z,4.83
2018-07-07T16:44:32.622Z,4.83
2018-07-07T16:47:00.778Z,5.10
2018-07-07T16:49:28.974Z,5.00
2018-07-07T16:51:57.710Z,5.50
2018-07-07T16:54:25.875Z,5.63
2018-07-07T16:56:54.057Z,5.43
2018-07-07T16:59:22.217Z,6.30
2018-07-07T17:01:51.612Z,5.42
2018-07-07T17:04:21.041Z,5.77
2018-07-07T17:06:50.193Z,5.20
2018-07-07T17:09:19.477Z,6.27
2018-07-07T17:11:49.367Z,6.03
2018-07-07T17:14:18.626Z,6.13
2018-07-07T17:16:47.627Z,5.60
2018-07-07T17:19:17.123Z,5.97
2018-07-07T17:21:46.220Z,6.20
2018-07-07T17:24:15.251Z,5.30
2018-07-07T17:26:44.481Z,5.67
2018-07-07T17:29:12.586Z,5.50
2018-07-07T17:31:40.716Z,6.30
2018-07-07T17:34:08.854Z,6.50
2018-07-07T17:36:36.933Z,6.03
2018-07-07T17:39:05.394Z,6.20
2018-07-07T17:41:33.855Z,7.27
2018-07-07T17:44:01.997Z,4.60
2018-07-07T17:46:30.097Z,5.60
2018-07-07T17:48:58.209Z,5.60
2018-07-07T17:51:27.278Z,6.00
2018-07-07T17:53:56.631Z,5.90
2018-07-07T17:56:24.866Z,5.97
2018-07-07T17:58:53.019Z,6.60
2018-07-07T18:01:21.872Z,6.58
2018-07-07T18:03:51.207Z,6.73
2018-07-07T18:06:20.127Z,5.60
2018-07-07T18:08:49.162Z,5.80
2018-07-07T18:11:17.285Z,6.03
2018-07-07T18:13:45.566Z,6.97
2018-07-07T18:16:13.734Z,6.60
2018-07-07T18:18:41.880Z,6.50
2018-07-07T18:21:10.363Z,6.55
2018-07-07T18:23:38.441Z,7.00
2018-07-07T18:26:06.523Z,6.40
2018-07-07T18:28:34.682Z,6.80
2018-07-07T18:31:02.862Z,6.83
2018-07-07T18:33:30.830Z,6.53
2018-07-07T18:35:58.874Z,6.73
2018-07-07T18:38:26.936Z,6.10
2018-07-07T18:40:55.005Z,5.63
2018-07-07T18:43:23.275Z,5.90
2018-07-07T18:45:52.178Z,7.70
2018-07-07T18:48:21.224Z,5.87
2018-07-07T18:50:50.024Z,6.33
2018-07-07T18:53:18.408Z,7.00
2018-07-07T18:55:46.669Z,7.23
2018-07-07T18:58:14.714Z,6.73
2018-07-07T19:00:42.832Z,5.90
2018-07-07T19:03:10.937Z,6.20
2018-07-07T19:05:39.021Z,5.90
2018-07-07T19:08:07.094Z,5.93
2018-07-07T19:10:35.173Z,6.03
2018-07-07T19:13:03.275Z,6.20
2018-07-07T19:15:31.469Z,6.53
2018-07-07T19:17:59.520Z,6.70
2018-07-07T19:20:32.853Z,6.47
2018-07-07T19:23:06.326Z,6.33
2018-07-07T19:25:39.649Z,6.97
2018-07-07T19:28:07.712Z,6.57
2018-07-07T19:30:35.791Z,6.80
2018-07-07T19:33:09.108Z,6.87
2018-07-07T19:35:42.485Z,6.40
2018-07-07T19:38:10.655Z,7.80
2018-07-07T19:40:38.862Z,6.83
2018-07-07T19:43:06.895Z,6.30
2018-07-07T19:45:35.025Z,6.80
2018-07-07T19:48:03.109Z,7.27
2018-07-07T19:50:31.261Z,5.53
2018-07-07T19:52:59.353Z,7.03
2018-07-07T19:55:27.472Z,7.10
2018-07-07T19:57:55.756Z,6.20
2018-07-07T20:00:25.039Z,7.80
2018-07-07T20:02:54.541Z,9.30
2018-07-07T20:05:23.514Z,10.50
2018-07-07T20:07:52.477Z,8.17
2018-07-07T20:10:20.684Z,8.77
2018-07-07T20:16:13.746Z,10.77
2018-07-07T20:18:52.608Z,10.73
2018-07-07T20:21:31.907Z,10.87
2018-07-07T20:23:59.987Z,9.23
2018-07-07T20:26:28.054Z,10.27
2018-07-07T20:28:56.329Z,11.70
2018-07-07T20:31:25.286Z,12.87
2018-07-07T20:33:54.226Z,9.90
2018-07-07T20:36:22.998Z,13.13
2018-07-07T20:38:51.315Z,11.83
2018-07-07T20:41:19.535Z,13.63
2018-07-07T20:43:47.638Z,12.70
2018-07-07T20:46:15.705Z,10.20
2018-07-07T20:48:43.777Z,10.07
2018-07-07T20:51:11.826Z,9.93
2018-07-07T20:53:39.947Z,9.83
2018-07-07T20:56:08.064Z,8.47
2018-07-07T20:58:36.142Z,9.73
2018-07-07T21:01:04.263Z,7.60
2018-07-07T21:03:32.355Z,8.53
2018-07-07T21:06:00.429Z,10.53
2018-07-07T21:08:28.546Z,10.40
2018-07-07T21:10:57.480Z,11.23
2018-07-07T21:13:26.562Z,11.00
2018-07-07T21:15:55.585Z,12.30
2018-07-07T21:18:24.460Z,10.47
2018-07-07T21:20:52.852Z,10.33
2018-07-07T21:23:21.087Z,9.73
2018-07-07T21:25:49.233Z,10.40
2018-07-07T21:28:17.313Z,11.00
2018-07-07T21:30:45.374Z,11.03
2018-07-07T21:33:13.470Z,11.70
2018-07-07T21:35:41.587Z,12.60
2018-07-07T21:38:09.648Z,11.03
2018-07-07T21:40:37.744Z,13.53
2018-07-07T21:43:05.832Z,11.77
2018-07-07T21:45:33.918Z,12.10
2018-07-07T21:48:02.010Z,15.93
2018-07-07T21:50:30.157Z,14.27
2018-07-07T21:52:58.712Z,14.40
2018-07-07T21:55:27.889Z,12.40
2018-07-07T21:58:01.734Z,11.60
2018-07-07T22:00:35.127Z,11.33
2018-07-07T22:03:08.635Z,10.93
2018-07-07T22:05:41.980Z,11.20
2018-07-07T22:08:15.281Z,11.13
2018-07-07T22:10:43.377Z,11.83
2018-07-07T22:13:11.443Z,11.30
2018-07-07T22:15:39.615Z,11.93
2018-07-07T22:18:07.693Z,9.97
2018-07-07T22:20:36.875Z,10.60
2018-07-07T22:23:05.349Z,9.63
2018-07-07T22:25:33.595Z,9.00
2018-07-07T22:28:01.669Z,9.60
2018-07-07T22:30:30.068Z,9.60
2018-07-07T22:33:03.980Z,8.90
2018-07-07T22:35:37.388Z,9.83
2018-07-07T22:38:09.759Z,10.40
2018-07-07T22:40:37.859Z,10.03
2018-07-07T22:43:06.048Z,10.80
2018-07-07T22:45:34.244Z,10.70
2018-07-07T22:48:02.310Z,10.27
2018-07-07T22:50:30.627Z,12.23
2018-07-07T22:52:59.740Z,10.23
2018-07-07T22:55:28.823Z,8.63
2018-07-07T22:57:58.231Z,9.10
2018-07-07T23:00:31.120Z,7.70
2018-07-07T23:02:59.896Z,6.13
2018-07-07T23:05:29.009Z,10.60
2018-07-07T23:07:58.005Z,8.40
2018-07-07T23:10:26.175Z,7.07
2018-07-07T23:12:54.396Z,7.70
2018-07-07T23:15:22.537Z,7.70
2018-07-07T23:17:50.693Z,8.03
2018-07-07T23:20:18.753Z,7.20
2018-07-07T23:22:47.381Z,8.00
2018-07-07T23:25:15.477Z,6.80
2018-07-07T23:27:43.551Z,6.50
2018-07-07T23:30:11.624Z,5.70
2018-07-07T23:32:39.705Z,5.27
2018-07-07T23:35:07.801Z,5.00
2018-07-07T23:37:35.841Z,5.53
2018-07-07T23:40:04.002Z,5.60
2018-07-07T23:42:32.238Z,6.50
2018-07-07T23:45:01.354Z,6.30
2018-07-07T23:47:30.974Z,5.90
2018-07-07T23:50:01.607Z,5.93
2018-07-07T23:52:31.330Z,5.73
2018-07-07T23:55:00.401Z,7.00
2018-07-07T23:57:29.363Z,5.97
2018-07-07T23:59:58.566Z,6.30
